createdAt,value
2019-03-27T00:01:26.210Z,5.70
2019-03-27T00:04:15.103Z,5.60
2019-03-27T00:09:52.344Z,5.60
2019-03-27T00:12:41.322Z,5.50
2019-03-27T00:15:30.015Z,5.50
2019-03-27T00:18:10.880Z,5.40
2019-03-27T00:20:52.187Z,5.40
2019-03-27T00:23:33.350Z,5.30
2019-03-27T00:26:14.749Z,5.30
2019-03-27T00:28:55.931Z,5.20
2019-03-27T00:31:37.375Z,5.00
2019-03-27T00:34:18.460Z,4.90
2019-03-27T00:36:59.504Z,4.90
2019-03-27T00:39:40.871Z,4.80
2019-03-27T00:42:22.351Z,4.70
2019-03-27T00:45:03.694Z,4.70
2019-03-27T00:47:44.753Z,4.70
2019-03-27T00:50:14.859Z,4.60
2019-03-27T00:53:03.531Z,4.50
2019-03-27T00:55:52.457Z,4.50
2019-03-27T00:58:22.406Z,4.50
2019-03-27T01:04:26.615Z,4.40
2019-03-27T01:07:15.442Z,4.50
2019-03-27T01:10:04.412Z,4.60
2019-03-27T01:12:53.114Z,4.60
2019-03-27T01:15:41.797Z,4.40
2019-03-27T01:18:23.051Z,4.30
2019-03-27T01:21:03.694Z,4.20
2019-03-27T01:23:45.113Z,4.30
2019-03-27T01:26:25.744Z,4.30
2019-03-27T01:29:06.423Z,4.30
2019-03-27T01:31:47.005Z,4.30
2019-03-27T01:34:28.405Z,4.20
2019-03-27T01:37:09.575Z,4.00
2019-03-27T01:39:50.657Z,4.00
2019-03-27T01:45:23.936Z,4.00
2019-03-27T01:48:04.986Z,4.00
2019-03-27T01:50:46.230Z,4.00
2019-03-27T01:53:27.131Z,4.00
2019-03-27T01:56:08.219Z,4.00
2019-03-27T01:58:49.577Z,3.90
2019-03-27T02:01:31.099Z,3.90
2019-03-27T02:04:12.327Z,3.90
2019-03-27T02:06:53.484Z,3.90
2019-03-27T02:09:34.476Z,4.00
2019-03-27T02:12:15.718Z,4.00
2019-03-27T02:14:56.719Z,4.10
2019-03-27T02:17:37.970Z,4.10
2019-03-27T02:20:19.144Z,4.20
2019-03-27T02:22:59.698Z,4.30
2019-03-27T02:25:40.864Z,4.30
2019-03-27T02:28:22.379Z,4.30
2019-03-27T02:31:03.603Z,4.40
2019-03-27T02:33:44.834Z,4.40
2019-03-27T02:36:26.141Z,4.50
2019-03-27T02:39:07.364Z,4.60
2019-03-27T02:41:48.440Z,4.60
2019-03-27T02:44:29.664Z,4.60
2019-03-27T02:47:10.901Z,4.60
2019-03-27T02:49:51.835Z,4.60
2019-03-27T02:52:32.873Z,4.60
2019-03-27T02:55:13.866Z,4.60
2019-03-27T02:57:55.288Z,4.50
2019-03-27T03:00:36.276Z,4.50
2019-03-27T03:06:18.395Z,4.50
2019-03-27T03:08:59.774Z,4.50
2019-03-27T03:11:40.912Z,4.50
2019-03-27T03:14:22.230Z,4.50
2019-03-27T03:17:03.624Z,4.50
2019-03-27T03:19:44.822Z,4.50
2019-03-27T03:22:25.949Z,4.50
2019-03-27T03:25:06.661Z,4.50
2019-03-27T03:27:47.768Z,4.50
2019-03-27T03:30:28.340Z,4.50
2019-03-27T03:33:08.986Z,4.40
2019-03-27T03:35:50.235Z,4.50
2019-03-27T03:38:31.281Z,4.40
2019-03-27T03:41:12.413Z,4.40
2019-03-27T03:43:53.315Z,4.30
2019-03-27T03:46:34.574Z,4.30
2019-03-27T03:49:15.880Z,4.40
2019-03-27T03:51:57.172Z,4.30
2019-03-27T03:54:38.425Z,4.40
2019-03-27T03:57:19.885Z,4.30
2019-03-27T04:00:01.184Z,4.40
2019-03-27T04:02:42.131Z,4.30
2019-03-27T04:05:22.873Z,4.30
2019-03-27T04:08:04.432Z,4.20
2019-03-27T04:10:45.602Z,4.20
2019-03-27T04:13:26.845Z,4.20
2019-03-27T04:16:07.954Z,4.20
2019-03-27T04:18:49.340Z,4.10
2019-03-27T04:21:30.895Z,4.00
2019-03-27T04:24:12.031Z,4.00
2019-03-27T04:26:53.017Z,3.90
2019-03-27T04:29:33.815Z,3.90
2019-03-27T04:32:14.865Z,3.80
2019-03-27T04:34:56.131Z,3.80
2019-03-27T04:37:37.384Z,3.80
2019-03-27T04:40:19.311Z,3.70
2019-03-27T04:43:00.492Z,3.70
2019-03-27T04:45:41.812Z,3.70
2019-03-27T04:51:05.741Z,3.60
2019-03-27T04:53:47.153Z,3.50
2019-03-27T04:56:28.975Z,3.50
2019-03-27T04:59:10.275Z,3.50
2019-03-27T05:01:51.711Z,3.50
2019-03-27T05:04:33.231Z,3.50
2019-03-27T05:07:14.851Z,3.50
2019-03-27T05:09:56.026Z,3.50
2019-03-27T05:12:38.822Z,3.50
2019-03-27T05:15:19.704Z,3.50
2019-03-27T05:18:01.281Z,3.50
2019-03-27T05:20:42.049Z,3.60
2019-03-27T05:23:23.158Z,3.60
2019-03-27T05:26:03.905Z,3.70
2019-03-27T05:28:45.341Z,3.70
2019-03-27T05:31:26.564Z,3.70
2019-03-27T05:34:07.772Z,3.70
2019-03-27T05:36:49.214Z,3.70
2019-03-27T05:39:30.755Z,3.80
2019-03-27T05:42:12.183Z,3.80
2019-03-27T05:44:53.592Z,3.90
2019-03-27T05:47:34.337Z,3.90
2019-03-27T05:50:14.990Z,4.00
2019-03-27T05:52:56.375Z,4.00
2019-03-27T05:55:37.287Z,4.10
2019-03-27T05:58:18.598Z,4.10
2019-03-27T06:00:59.334Z,4.20
2019-03-27T06:03:40.760Z,4.20
2019-03-27T06:06:21.306Z,4.30
2019-03-27T06:09:01.934Z,4.40
2019-03-27T06:11:43.434Z,4.50
2019-03-27T06:14:24.337Z,4.60
2019-03-27T06:17:05.053Z,4.70
2019-03-27T06:19:46.152Z,4.80
2019-03-27T06:22:16.117Z,4.80
2019-03-27T06:25:04.851Z,4.90
2019-03-27T06:27:53.524Z,5.00
2019-03-27T06:30:42.222Z,5.10
2019-03-27T06:33:31.244Z,5.10
2019-03-27T06:36:19.887Z,5.20
2019-03-27T06:39:08.562Z,5.40
2019-03-27T06:41:57.275Z,5.50
2019-03-27T06:44:46.129Z,5.60
2019-03-27T06:47:34.892Z,5.70
2019-03-27T06:50:23.855Z,5.80
2019-03-27T06:53:12.941Z,6.00
2019-03-27T06:56:02.004Z,6.00
2019-03-27T06:58:54.932Z,6.20
2019-03-27T07:01:41.198Z,6.30
2019-03-27T07:04:29.928Z,6.40
2019-03-27T07:07:18.670Z,6.50
2019-03-27T07:10:07.716Z,6.60
2019-03-27T07:12:56.441Z,6.70
2019-03-27T07:15:45.351Z,6.80
2019-03-27T07:18:43.402Z,6.80
2019-03-27T07:21:37.421Z,6.80
2019-03-27T07:24:18.754Z,7.00
2019-03-27T07:27:00.306Z,7.20
2019-03-27T07:29:41.313Z,7.50
2019-03-27T07:32:22.490Z,7.70
2019-03-27T07:35:03.370Z,7.80
2019-03-27T07:37:44.773Z,7.90
2019-03-27T07:40:25.618Z,8.10
2019-03-27T07:43:07.034Z,8.10
2019-03-27T07:46:04.381Z,8.50
2019-03-27T07:48:31.500Z,8.20
2019-03-27T07:51:12.671Z,7.70
2019-03-27T07:53:53.215Z,7.40
2019-03-27T07:56:34.224Z,7.90
2019-03-27T07:59:18.033Z,8.10
2019-03-27T08:08:08.610Z,6.90
2019-03-27T08:10:50.058Z,6.60
2019-03-27T08:13:31.091Z,6.30
2019-03-27T08:16:12.159Z,6.50
2019-03-27T08:18:52.799Z,6.50
2019-03-27T08:21:33.947Z,6.40
2019-03-27T08:24:15.371Z,6.40
2019-03-27T08:26:56.364Z,6.70
2019-03-27T08:29:37.656Z,6.90
2019-03-27T08:32:18.617Z,7.70
2019-03-27T08:35:00.242Z,8.20
2019-03-27T08:37:41.417Z,7.90
2019-03-27T08:40:22.764Z,8.10
2019-03-27T08:42:52.700Z,8.20
2019-03-27T08:45:41.397Z,7.80
2019-03-27T08:48:30.148Z,7.40
2019-03-27T08:51:18.865Z,7.00
2019-03-27T08:54:07.765Z,7.50
2019-03-27T08:56:56.573Z,7.70
2019-03-27T08:59:45.325Z,7.90
2019-03-27T09:02:34.016Z,7.80
2019-03-27T09:05:22.742Z,8.60
2019-03-27T09:08:11.415Z,9.10
2019-03-27T09:11:00.117Z,9.00
2019-03-27T09:13:48.851Z,9.30
2019-03-27T09:16:30.037Z,8.50
2019-03-27T09:19:11.580Z,7.90
2019-03-27T09:21:52.325Z,7.30
2019-03-27T09:24:33.513Z,7.20
2019-03-27T09:27:14.804Z,7.00
2019-03-27T09:29:56.119Z,7.00
2019-03-27T09:32:37.474Z,7.00
2019-03-27T09:38:27.181Z,7.70
2019-03-27T09:41:07.981Z,8.60
2019-03-27T09:43:48.994Z,9.30
2019-03-27T09:46:18.856Z,9.50
2019-03-27T09:49:07.546Z,9.00
2019-03-27T09:51:56.229Z,10.60
2019-03-27T09:54:44.940Z,11.20
2019-03-27T09:57:33.950Z,9.60
2019-03-27T10:00:41.586Z,10.40
2019-03-27T10:03:30.272Z,10.60
2019-03-27T10:06:19.004Z,9.80
2019-03-27T10:09:08.060Z,8.80
2019-03-27T10:11:56.725Z,8.40
2019-03-27T10:14:47.489Z,8.70
2019-03-27T10:17:28.337Z,9.10
2019-03-27T10:20:09.593Z,9.60
2019-03-27T10:22:50.179Z,9.50
2019-03-27T10:25:31.484Z,9.00
2019-03-27T10:28:12.270Z,8.90
2019-03-27T10:30:53.644Z,8.50
2019-03-27T10:33:35.022Z,8.70
2019-03-27T10:36:16.537Z,9.10
2019-03-27T10:38:57.760Z,9.10
2019-03-27T10:41:38.867Z,8.90
2019-03-27T10:44:19.420Z,8.60
2019-03-27T10:47:00.706Z,8.60
2019-03-27T10:49:41.343Z,8.70
2019-03-27T10:52:22.583Z,8.80
2019-03-27T10:55:03.906Z,8.90
2019-03-27T10:57:44.537Z,8.80
2019-03-27T11:00:24.260Z,8.80
2019-03-27T11:03:12.939Z,8.90
2019-03-27T11:06:01.611Z,8.70
2019-03-27T11:08:50.267Z,8.60
2019-03-27T11:11:38.935Z,8.50
2019-03-27T11:14:37.857Z,8.70
2019-03-27T11:17:10.190Z,8.90
2019-03-27T11:19:51.424Z,8.70
2019-03-27T11:22:32.594Z,8.90
2019-03-27T11:25:13.827Z,8.80
2019-03-27T11:27:55.439Z,8.60
2019-03-27T11:30:36.932Z,8.50
2019-03-27T11:33:18.258Z,8.70
2019-03-27T11:35:59.160Z,9.00
2019-03-27T11:38:39.721Z,9.00
2019-03-27T11:41:20.972Z,8.90
2019-03-27T11:44:01.672Z,9.20
2019-03-27T11:46:43.032Z,9.10
2019-03-27T11:49:23.981Z,8.80
2019-03-27T11:52:05.389Z,8.90
2019-03-27T11:54:46.424Z,9.20
2019-03-27T11:57:26.998Z,8.80
2019-03-27T12:00:08.210Z,8.80
2019-03-27T12:02:49.365Z,8.70
2019-03-27T12:05:30.422Z,8.70
2019-03-27T12:08:11.068Z,9.00
2019-03-27T12:10:51.716Z,8.90
2019-03-27T12:13:32.929Z,8.60
2019-03-27T12:16:14.166Z,8.50
2019-03-27T12:18:55.050Z,8.70
2019-03-27T12:21:36.222Z,8.80
2019-03-27T12:24:17.661Z,8.90
2019-03-27T12:26:59.002Z,9.00
2019-03-27T12:29:40.255Z,8.70
2019-03-27T12:32:24.877Z,8.70
2019-03-27T12:35:04.565Z,8.70
2019-03-27T12:37:45.706Z,8.80
2019-03-27T12:40:27.133Z,8.70
2019-03-27T12:43:07.885Z,8.80
2019-03-27T12:45:49.262Z,8.70
2019-03-27T12:48:30.976Z,8.60
2019-03-27T12:51:13.413Z,8.70
2019-03-27T12:53:54.990Z,8.60
2019-03-27T12:56:36.097Z,8.70
2019-03-27T12:59:17.298Z,9.00
2019-03-27T13:01:58.479Z,9.20
2019-03-27T13:04:39.283Z,9.10
2019-03-27T13:07:20.194Z,8.90
2019-03-27T13:10:01.239Z,9.00
2019-03-27T13:12:42.587Z,8.90
2019-03-27T13:15:23.550Z,8.80
2019-03-27T13:18:04.890Z,9.10
2019-03-27T13:20:46.255Z,9.60
2019-03-27T13:23:27.313Z,9.60
2019-03-27T13:26:08.269Z,9.30
2019-03-27T13:28:49.502Z,9.30
2019-03-27T13:31:30.919Z,9.50
2019-03-27T13:34:12.403Z,9.30
2019-03-27T13:36:53.815Z,9.60
2019-03-27T13:39:35.216Z,10.70
2019-03-27T13:42:16.176Z,11.60
2019-03-27T13:44:57.166Z,11.30
2019-03-27T13:47:38.519Z,11.80
2019-03-27T13:50:19.465Z,12.50
2019-03-27T13:53:00.459Z,11.70
2019-03-27T13:55:41.492Z,11.60
2019-03-27T13:58:22.465Z,11.00
2019-03-27T14:01:03.516Z,10.00
2019-03-27T14:03:44.726Z,9.40
2019-03-27T14:06:29.298Z,9.90
2019-03-27T14:12:02.336Z,10.00
2019-03-27T14:14:51.206Z,9.60
2019-03-27T14:17:39.952Z,9.50
2019-03-27T14:20:21.004Z,9.60
2019-03-27T14:23:02.217Z,9.30
2019-03-27T14:25:43.462Z,9.40
2019-03-27T14:28:24.823Z,9.40
2019-03-27T14:31:05.883Z,9.20
2019-03-27T14:33:47.245Z,9.30
2019-03-27T14:36:28.571Z,9.20
2019-03-27T14:39:09.294Z,9.40
2019-03-27T14:41:50.627Z,9.40
2019-03-27T14:44:31.578Z,9.50
2019-03-27T14:47:15.556Z,9.50
2019-03-27T14:49:57.356Z,9.40
2019-03-27T14:52:38.582Z,9.40
2019-03-27T14:55:48.039Z,9.50
2019-03-27T14:58:36.711Z,9.90
2019-03-27T15:01:25.400Z,9.60
2019-03-27T15:04:14.265Z,9.50
2019-03-27T15:07:02.961Z,9.50
2019-03-27T15:09:51.676Z,9.30
2019-03-27T15:15:36.969Z,9.40
2019-03-27T15:18:25.837Z,9.30
2019-03-27T15:21:06.498Z,9.20
2019-03-27T15:23:47.266Z,9.10
2019-03-27T15:26:29.045Z,9.30
2019-03-27T15:29:10.060Z,9.30
2019-03-27T15:31:52.196Z,9.30
2019-03-27T15:34:33.683Z,9.20
2019-03-27T15:37:14.471Z,9.40
2019-03-27T15:39:54.385Z,9.70
2019-03-27T15:42:43.086Z,10.00
2019-03-27T15:45:34.385Z,10.20
2019-03-27T15:48:23.132Z,10.00
2019-03-27T15:51:11.845Z,9.50
2019-03-27T15:54:00.533Z,9.40
2019-03-27T15:56:49.209Z,9.40
2019-03-27T15:59:37.985Z,9.30
2019-03-27T16:02:26.706Z,9.10
2019-03-27T16:05:15.473Z,9.00
2019-03-27T16:08:04.216Z,8.90
2019-03-27T16:10:53.159Z,8.90
2019-03-27T16:13:41.829Z,8.90
2019-03-27T16:19:07.454Z,8.90
2019-03-27T16:21:49.053Z,8.90
2019-03-27T16:24:30.325Z,8.90
2019-03-27T16:27:11.936Z,8.90
2019-03-27T16:29:53.212Z,8.80
2019-03-27T16:32:34.065Z,8.80
2019-03-27T16:35:15.466Z,8.90
2019-03-27T16:37:56.510Z,8.90
2019-03-27T16:40:37.572Z,9.00
2019-03-27T16:43:18.574Z,9.00
2019-03-27T16:45:59.689Z,9.00
2019-03-27T16:48:40.243Z,8.90
2019-03-27T16:51:21.458Z,8.90
2019-03-27T16:54:02.806Z,8.90
2019-03-27T16:56:44.058Z,8.80
2019-03-27T16:59:25.479Z,8.90
2019-03-27T17:02:06.950Z,8.90
2019-03-27T17:04:48.234Z,8.90
2019-03-27T17:07:29.461Z,8.90
2019-03-27T17:10:10.243Z,8.80
2019-03-27T17:12:51.569Z,8.80
2019-03-27T17:15:32.413Z,8.80
2019-03-27T17:18:13.132Z,8.80
2019-03-27T17:20:54.367Z,8.80
2019-03-27T17:23:35.156Z,8.80
2019-03-27T17:26:17.045Z,8.70
2019-03-27T17:28:47.151Z,8.70
2019-03-27T17:31:35.990Z,8.60
2019-03-27T17:44:13.120Z,8.60
2019-03-27T17:47:01.789Z,8.70
2019-03-27T17:49:31.765Z,8.70
2019-03-27T17:52:20.425Z,8.80
2019-03-27T17:55:09.158Z,8.80
2019-03-27T18:04:07.438Z,8.80
2019-03-27T18:06:56.261Z,8.70
2019-03-27T18:09:45.233Z,8.60
2019-03-27T18:12:33.870Z,8.60
2019-03-27T18:15:22.548Z,8.60
2019-03-27T18:18:11.206Z,8.60
2019-03-27T18:20:52.661Z,8.60
2019-03-27T18:23:22.682Z,8.60
2019-03-27T18:26:11.429Z,8.70
2019-03-27T18:29:00.239Z,8.80
2019-03-27T18:31:48.973Z,8.70
2019-03-27T18:34:37.633Z,8.90
2019-03-27T18:37:26.533Z,9.10
2019-03-27T18:40:15.370Z,9.20
2019-03-27T18:43:04.117Z,9.00
2019-03-27T18:45:52.710Z,8.90
2019-03-27T18:48:41.353Z,8.70
2019-03-27T18:51:30.205Z,8.70
2019-03-27T18:54:19.098Z,8.60
2019-03-27T18:57:07.767Z,8.60
2019-03-27T18:59:56.403Z,8.60
2019-03-27T19:03:05.261Z,8.60
2019-03-27T19:05:54.019Z,8.50
2019-03-27T19:08:42.661Z,8.50
2019-03-27T19:17:35.126Z,8.60
2019-03-27T19:20:16.702Z,8.60
2019-03-27T19:22:57.528Z,8.50
2019-03-27T19:25:27.509Z,8.50
2019-03-27T19:28:16.319Z,8.50
2019-03-27T19:31:05.162Z,8.50
2019-03-27T19:33:53.909Z,8.70
2019-03-27T19:36:42.748Z,8.90
2019-03-27T19:39:31.507Z,9.10
2019-03-27T19:42:20.295Z,9.20
2019-03-27T19:45:09.157Z,9.20
2019-03-27T19:47:57.974Z,9.30
2019-03-27T19:50:46.739Z,9.30
2019-03-27T19:57:05.006Z,9.20
2019-03-27T19:59:35.155Z,9.10
2019-03-27T20:02:23.994Z,9.10
2019-03-27T20:05:13.241Z,9.10
2019-03-27T20:08:02.108Z,9.10
2019-03-27T20:10:50.820Z,9.00
2019-03-27T20:13:39.881Z,9.00
2019-03-27T20:16:21.017Z,8.90
2019-03-27T20:19:02.391Z,8.90
2019-03-27T20:21:42.333Z,8.90
2019-03-27T20:24:40.872Z,8.70
2019-03-27T20:27:22.092Z,8.70
2019-03-27T20:30:11.830Z,8.70
2019-03-27T20:33:00.607Z,8.80
2019-03-27T20:35:49.329Z,8.80
2019-03-27T20:41:53.286Z,8.80
2019-03-27T20:44:50.345Z,8.80
2019-03-27T20:47:39.123Z,8.70
2019-03-27T20:50:27.837Z,8.50
2019-03-27T20:53:16.599Z,8.50
2019-03-27T20:56:05.306Z,8.60
2019-03-27T20:58:54.128Z,8.70
2019-03-27T21:01:42.851Z,8.70
2019-03-27T21:04:31.541Z,8.70
2019-03-27T21:07:20.344Z,8.60
2019-03-27T21:10:09.419Z,8.60
2019-03-27T21:12:58.105Z,8.50
2019-03-27T21:15:39.066Z,8.40
2019-03-27T21:18:20.362Z,8.50
2019-03-27T21:21:01.564Z,8.30
2019-03-27T21:23:42.602Z,8.20
2019-03-27T21:26:23.966Z,8.30
2019-03-27T21:29:05.382Z,8.40
2019-03-27T21:31:35.285Z,8.50
2019-03-27T21:34:24.020Z,8.50
2019-03-27T21:37:12.799Z,8.50
2019-03-27T21:40:01.525Z,8.50
2019-03-27T21:42:50.215Z,8.60
2019-03-27T21:45:59.754Z,8.60
2019-03-27T21:49:14.289Z,8.50
2019-03-27T21:52:03.228Z,8.50
2019-03-27T21:54:52.677Z,8.50
2019-03-27T21:57:41.481Z,8.40
2019-03-27T22:00:48.986Z,8.40
2019-03-27T22:03:37.728Z,8.40
2019-03-27T22:06:26.380Z,8.40
2019-03-27T22:09:34.216Z,8.40
2019-03-27T22:12:22.949Z,8.50
2019-03-27T22:15:04.375Z,8.40
2019-03-27T22:17:45.496Z,8.40
2019-03-27T22:20:26.809Z,8.40
2019-03-27T22:23:08.085Z,8.40
2019-03-27T22:25:49.565Z,8.30
2019-03-27T22:28:30.797Z,8.40
2019-03-27T22:31:11.739Z,8.30
2019-03-27T22:33:52.968Z,8.30
2019-03-27T22:36:33.995Z,8.30
2019-03-27T22:39:45.708Z,8.30
2019-03-27T22:42:34.440Z,8.30
2019-03-27T22:45:26.052Z,8.30
2019-03-27T22:48:14.799Z,8.30
2019-03-27T22:51:03.461Z,8.30
2019-03-27T22:53:52.253Z,8.20
2019-03-27T22:56:41.101Z,8.30
2019-03-27T22:59:29.865Z,8.20
2019-03-27T23:02:18.780Z,8.20
2019-03-27T23:05:07.618Z,8.20
2019-03-27T23:07:56.308Z,8.20
2019-03-27T23:10:44.933Z,8.30
2019-03-27T23:13:14.812Z,8.30
2019-03-27T23:15:56.165Z,8.30
2019-03-27T23:18:37.331Z,8.30
2019-03-27T23:21:18.228Z,8.30
2019-03-27T23:23:58.800Z,8.20
2019-03-27T23:26:39.422Z,8.10
2019-03-27T23:29:20.690Z,8.00
2019-03-27T23:32:01.855Z,8.00
2019-03-27T23:34:42.527Z,7.90
2019-03-27T23:37:23.860Z,7.90
2019-03-27T23:40:04.951Z,7.80
2019-03-27T23:42:46.194Z,7.80
2019-03-27T23:45:26.932Z,7.70
2019-03-27T23:48:08.116Z,7.70
2019-03-27T23:50:49.136Z,7.70
2019-03-27T23:53:30.232Z,7.70
2019-03-27T23:56:00.846Z,7.60
2019-03-27T23:58:49.736Z,7.60
